sensor_id;sensor_type;location;lat;lon;timestamp;P1;durP1;ratioP1;P2;durP2;ratioP2
315;SDS011;14128;48.686;9.738;2022-11-20T00:01:08;7.37;;;5.93;;
315;SDS011;14128;48.686;9.738;2022-11-20T00:03:36;11.07;;;6.70;;
315;SDS011;14128;48.686;9.738;2022-11-20T00:06:03;7.80;;;6.00;;
315;SDS011;14128;48.686;9.738;2022-11-20T00:08:31;8.20;;;6.30;;
315;SDS011;14128;48.686;9.738;2022-11-20T00:11:01;8.80;;;6.80;;
315;SDS011;14128;48.686;9.738;2022-11-20T00:13:29;6.50;;;5.30;;
315;SDS011;14128;48.686;9.738;2022-11-20T00:15:56;11.97;;;5.83;;
315;SDS011;14128;48.686;9.738;2022-11-20T00:18:25;9.97;;;6.57;;
315;SDS011;14128;48.686;9.738;2022-11-20T00:20:52;9.33;;;7.47;;
315;SDS011;14128;48.686;9.738;2022-11-20T00:23:19;8.40;;;7.27;;
315;SDS011;14128;48.686;9.738;2022-11-20T00:25:46;11.43;;;8.67;;
315;SDS011;14128;48.686;9.738;2022-11-20T00:28:13;27.27;;;9.63;;
315;SDS011;14128;48.686;9.738;2022-11-20T00:30:39;12.93;;;8.43;;
315;SDS011;14128;48.686;9.738;2022-11-20T00:33:06;10.53;;;7.47;;
315;SDS011;14128;48.686;9.738;2022-11-20T00:35:34;9.20;;;7.87;;
315;SDS011;14128;48.686;9.738;2022-11-20T00:38:01;11.60;;;8.37;;
315;SDS011;14128;48.686;9.738;2022-11-20T00:40:28;8.93;;;5.83;;
315;SDS011;14128;48.686;9.738;2022-11-20T00:42:55;9.67;;;6.77;;
315;SDS011;14128;48.686;9.738;2022-11-20T00:45:22;9.10;;;6.57;;
315;SDS011;14128;48.686;9.738;2022-11-20T00:47:48;9.03;;;6.60;;
315;SDS011;14128;48.686;9.738;2022-11-20T00:50:15;7.07;;;5.30;;
315;SDS011;14128;48.686;9.738;2022-11-20T00:52:43;7.20;;;6.20;;
315;SDS011;14128;48.686;9.738;2022-11-20T00:55:10;9.03;;;6.07;;
315;SDS011;14128;48.686;9.738;2022-11-20T00:57:37;9.13;;;6.20;;
315;SDS011;14128;48.686;9.738;2022-11-20T01:00:04;8.10;;;5.80;;
315;SDS011;14128;48.686;9.738;2022-11-20T01:02:32;9.50;;;6.93;;
315;SDS011;14128;48.686;9.738;2022-11-20T01:04:59;8.67;;;5.90;;
315;SDS011;14128;48.686;9.738;2022-11-20T01:07:25;6.73;;;6.00;;
315;SDS011;14128;48.686;9.738;2022-11-20T01:09:53;11.23;;;6.53;;
315;SDS011;14128;48.686;9.738;2022-11-20T01:12:20;7.80;;;5.97;;
315;SDS011;14128;48.686;9.738;2022-11-20T01:14:47;11.80;;;7.10;;
315;SDS011;14128;48.686;9.738;2022-11-20T01:17:14;6.33;;;6.00;;
315;SDS011;14128;48.686;9.738;2022-11-20T01:19:41;8.80;;;7.40;;
315;SDS011;14128;48.686;9.738;2022-11-20T01:22:07;6.90;;;6.13;;
315;SDS011;14128;48.686;9.738;2022-11-20T01:24:34;8.53;;;6.00;;
315;SDS011;14128;48.686;9.738;2022-11-20T01:27:02;6.30;;;5.13;;
315;SDS011;14128;48.686;9.738;2022-11-20T01:29:29;7.60;;;5.53;;
315;SDS011;14128;48.686;9.738;2022-11-20T01:31:56;12.40;;;7.83;;
315;SDS011;14128;48.686;9.738;2022-11-20T01:34:23;10.60;;;6.30;;
315;SDS011;14128;48.686;9.738;2022-11-20T01:36:50;7.90;;;5.70;;
315;SDS011;14128;48.686;9.738;2022-11-20T01:39:19;8.00;;;6.57;;
315;SDS011;14128;48.686;9.738;2022-11-20T01:41:47;6.20;;;5.90;;
315;SDS011;14128;48.686;9.738;2022-11-20T01:44:43;12.03;;;6.90;;
315;SDS011;14128;48.686;9.738;2022-11-20T01:47:17;6.97;;;5.90;;
315;SDS011;14128;48.686;9.738;2022-11-20T01:49:50;7.03;;;5.83;;
315;SDS011;14128;48.686;9.738;2022-11-20T01:52:20;9.67;;;5.83;;
315;SDS011;14128;48.686;9.738;2022-11-20T01:54:50;7.17;;;5.70;;
315;SDS011;14128;48.686;9.738;2022-11-20T01:57:19;5.83;;;5.60;;
315;SDS011;14128;48.686;9.738;2022-11-20T01:59:49;7.80;;;5.80;;
315;SDS011;14128;48.686;9.738;2022-11-20T02:02:21;8.13;;;6.10;;
315;SDS011;14128;48.686;9.738;2022-11-20T02:04:48;8.00;;;6.93;;
315;SDS011;14128;48.686;9.738;2022-11-20T02:07:17;6.73;;;6.33;;
315;SDS011;14128;48.686;9.738;2022-11-20T02:09:46;9.63;;;6.70;;
315;SDS011;14128;48.686;9.738;2022-11-20T02:12:13;7.73;;;5.80;;
315;SDS011;14128;48.686;9.738;2022-11-20T02:14:56;10.73;;;6.80;;
315;SDS011;14128;48.686;9.738;2022-11-20T02:17:23;7.17;;;5.60;;
315;SDS011;14128;48.686;9.738;2022-11-20T02:19:50;9.23;;;7.07;;
315;SDS011;14128;48.686;9.738;2022-11-20T02:22:18;6.13;;;5.87;;
315;SDS011;14128;48.686;9.738;2022-11-20T02:24:49;7.53;;;5.47;;
315;SDS011;14128;48.686;9.738;2022-11-20T02:27:17;9.27;;;5.60;;
315;SDS011;14128;48.686;9.738;2022-11-20T02:29:45;10.30;;;6.37;;
315;SDS011;14128;48.686;9.738;2022-11-20T02:32:19;8.20;;;5.90;;
315;SDS011;14128;48.686;9.738;2022-11-20T02:34:46;8.13;;;6.10;;
315;SDS011;14128;48.686;9.738;2022-11-20T02:37:13;8.47;;;6.37;;
315;SDS011;14128;48.686;9.738;2022-11-20T02:39:40;8.23;;;6.40;;
315;SDS011;14128;48.686;9.738;2022-11-20T02:42:10;10.03;;;6.03;;
315;SDS011;14128;48.686;9.738;2022-11-20T02:44:37;9.30;;;6.60;;
315;SDS011;14128;48.686;9.738;2022-11-20T02:47:04;8.40;;;6.47;;
315;SDS011;14128;48.686;9.738;2022-11-20T02:49:30;8.97;;;7.10;;
315;SDS011;14128;48.686;9.738;2022-11-20T02:51:58;7.70;;;7.00;;
315;SDS011;14128;48.686;9.738;2022-11-20T02:54:25;8.00;;;6.07;;
315;SDS011;14128;48.686;9.738;2022-11-20T02:56:52;10.27;;;7.00;;
315;SDS011;14128;48.686;9.738;2022-11-20T02:59:20;9.47;;;8.00;;
315;SDS011;14128;48.686;9.738;2022-11-20T03:01:46;10.70;;;6.80;;
315;SDS011;14128;48.686;9.738;2022-11-20T03:04:13;9.70;;;7.77;;
315;SDS011;14128;48.686;9.738;2022-11-20T03:06:40;9.10;;;6.63;;
315;SDS011;14128;48.686;9.738;2022-11-20T03:09:07;11.37;;;8.77;;
315;SDS011;14128;48.686;9.738;2022-11-20T03:11:34;9.10;;;7.83;;
315;SDS011;14128;48.686;9.738;2022-11-20T03:14:01;11.80;;;8.73;;
315;SDS011;14128;48.686;9.738;2022-11-20T03:16:30;12.23;;;8.67;;
315;SDS011;14128;48.686;9.738;2022-11-20T03:18:57;10.73;;;7.70;;
315;SDS011;14128;48.686;9.738;2022-11-20T03:21:24;8.87;;;7.80;;
315;SDS011;14128;48.686;9.738;2022-11-20T03:23:52;10.00;;;7.63;;
315;SDS011;14128;48.686;9.738;2022-11-20T03:26:19;12.30;;;7.97;;
315;SDS011;14128;48.686;9.738;2022-11-20T03:28:48;13.20;;;7.70;;
315;SDS011;14128;48.686;9.738;2022-11-20T03:31:17;13.07;;;8.93;;
315;SDS011;14128;48.686;9.738;2022-11-20T03:33:46;10.57;;;8.70;;
315;SDS011;14128;48.686;9.738;2022-11-20T03:36:14;10.70;;;7.73;;
315;SDS011;14128;48.686;9.738;2022-11-20T03:38:42;9.87;;;7.20;;
315;SDS011;14128;48.686;9.738;2022-11-20T03:41:09;9.73;;;8.83;;
315;SDS011;14128;48.686;9.738;2022-11-20T03:43:37;10.20;;;8.03;;
315;SDS011;14128;48.686;9.738;2022-11-20T03:46:05;11.27;;;8.40;;
315;SDS011;14128;48.686;9.738;2022-11-20T03:48:32;14.20;;;8.10;;
315;SDS011;14128;48.686;9.738;2022-11-20T03:51:07;10.87;;;8.97;;
315;SDS011;14128;48.686;9.738;2022-11-20T03:53:35;15.10;;;9.00;;
315;SDS011;14128;48.686;9.738;2022-11-20T03:56:02;11.23;;;8.87;;
315;SDS011;14128;48.686;9.738;2022-11-20T03:58:30;16.40;;;9.80;;
315;SDS011;14128;48.686;9.738;2022-11-20T04:01:03;11.70;;;8.73;;
315;SDS011;14128;48.686;9.738;2022-11-20T04:03:30;11.30;;;9.10;;
315;SDS011;14128;48.686;9.738;2022-11-20T04:06:00;14.00;;;9.40;;
315;SDS011;14128;48.686;9.738;2022-11-20T04:08:29;12.60;;;9.43;;
315;SDS011;14128;48.686;9.738;2022-11-20T04:10:56;10.93;;;8.90;;
315;SDS011;14128;48.686;9.738;2022-11-20T04:13:33;16.90;;;9.73;;
315;SDS011;14128;48.686;9.738;2022-11-20T04:16:00;14.67;;;9.90;;
315;SDS011;14128;48.686;9.738;2022-11-20T04:18:27;12.17;;;8.67;;
315;SDS011;14128;48.686;9.738;2022-11-20T04:20:53;9.67;;;8.03;;
315;SDS011;14128;48.686;9.738;2022-11-20T04:23:22;10.57;;;8.40;;
315;SDS011;14128;48.686;9.738;2022-11-20T04:25:50;11.67;;;8.87;;
315;SDS011;14128;48.686;9.738;2022-11-20T04:28:17;13.37;;;7.30;;
315;SDS011;14128;48.686;9.738;2022-11-20T04:30:43;13.23;;;8.70;;
315;SDS011;14128;48.686;9.738;2022-11-20T04:33:10;13.43;;;9.00;;
315;SDS011;14128;48.686;9.738;2022-11-20T04:35:37;12.67;;;9.60;;
315;SDS011;14128;48.686;9.738;2022-11-20T04:38:04;15.83;;;9.20;;
315;SDS011;14128;48.686;9.738;2022-11-20T04:40:31;12.70;;;8.87;;
315;SDS011;14128;48.686;9.738;2022-11-20T04:42:59;12.23;;;9.17;;
315;SDS011;14128;48.686;9.738;2022-11-20T04:45:26;10.53;;;8.93;;
315;SDS011;14128;48.686;9.738;2022-11-20T04:47:53;14.37;;;8.50;;
315;SDS011;14128;48.686;9.738;2022-11-20T04:50:19;13.60;;;10.10;;
315;SDS011;14128;48.686;9.738;2022-11-20T04:52:46;13.53;;;10.30;;
315;SDS011;14128;48.686;9.738;2022-11-20T04:55:13;10.53;;;9.20;;
315;SDS011;14128;48.686;9.738;2022-11-20T04:57:40;11.80;;;9.13;;
315;SDS011;14128;48.686;9.738;2022-11-20T05:00:09;11.67;;;9.30;;
315;SDS011;14128;48.686;9.738;2022-11-20T05:02:36;13.47;;;9.10;;
315;SDS011;14128;48.686;9.738;2022-11-20T05:05:03;10.17;;;8.83;;
315;SDS011;14128;48.686;9.738;2022-11-20T05:07:30;13.40;;;10.23;;
315;SDS011;14128;48.686;9.738;2022-11-20T05:09:57;12.87;;;9.80;;
315;SDS011;14128;48.686;9.738;2022-11-20T05:12:24;10.37;;;8.00;;
315;SDS011;14128;48.686;9.738;2022-11-20T05:14:50;15.97;;;8.70;;
315;SDS011;14128;48.686;9.738;2022-11-20T05:17:19;9.07;;;6.90;;
315;SDS011;14128;48.686;9.738;2022-11-20T05:19:45;8.70;;;6.10;;
315;SDS011;14128;48.686;9.738;2022-11-20T05:22:12;6.83;;;6.13;;
315;SDS011;14128;48.686;9.738;2022-11-20T05:24:39;9.23;;;6.83;;
315;SDS011;14128;48.686;9.738;2022-11-20T05:27:06;7.80;;;6.67;;
315;SDS011;14128;48.686;9.738;2022-11-20T05:29:32;6.40;;;5.00;;
315;SDS011;14128;48.686;9.738;2022-11-20T05:31:59;8.97;;;6.13;;
315;SDS011;14128;48.686;9.738;2022-11-20T05:34:27;5.63;;;4.97;;
315;SDS011;14128;48.686;9.738;2022-11-20T05:36:54;8.13;;;5.10;;
315;SDS011;14128;48.686;9.738;2022-11-20T05:39:21;7.70;;;5.30;;
315;SDS011;14128;48.686;9.738;2022-11-20T05:41:47;5.27;;;4.73;;
315;SDS011;14128;48.686;9.738;2022-11-20T05:44:34;6.67;;;4.87;;
315;SDS011;14128;48.686;9.738;2022-11-20T05:47:01;7.53;;;4.60;;
315;SDS011;14128;48.686;9.738;2022-11-20T05:49:29;6.20;;;4.60;;
315;SDS011;14128;48.686;9.738;2022-11-20T05:51:56;7.60;;;4.13;;
315;SDS011;14128;48.686;9.738;2022-11-20T05:54:23;4.83;;;3.60;;
315;SDS011;14128;48.686;9.738;2022-11-20T05:56:49;4.20;;;3.97;;
315;SDS011;14128;48.686;9.738;2022-11-20T05:59:16;5.40;;;4.10;;
315;SDS011;14128;48.686;9.738;2022-11-20T06:01:43;4.87;;;3.80;;
315;SDS011;14128;48.686;9.738;2022-11-20T06:04:10;6.97;;;3.80;;
315;SDS011;14128;48.686;9.738;2022-11-20T06:06:38;5.73;;;4.43;;
315;SDS011;14128;48.686;9.738;2022-11-20T06:09:05;6.13;;;4.27;;
315;SDS011;14128;48.686;9.738;2022-11-20T06:11:31;5.67;;;3.63;;
315;SDS011;14128;48.686;9.738;2022-11-20T06:13:58;5.53;;;3.50;;
315;SDS011;14128;48.686;9.738;2022-11-20T06:16:25;3.47;;;2.80;;
315;SDS011;14128;48.686;9.738;2022-11-20T06:18:52;9.20;;;4.27;;
315;SDS011;14128;48.686;9.738;2022-11-20T06:21:19;5.07;;;3.10;;
315;SDS011;14128;48.686;9.738;2022-11-20T06:23:49;4.07;;;3.00;;
315;SDS011;14128;48.686;9.738;2022-11-20T06:26:19;4.90;;;3.43;;
315;SDS011;14128;48.686;9.738;2022-11-20T06:28:46;2.60;;;2.40;;
315;SDS011;14128;48.686;9.738;2022-11-20T06:31:14;3.03;;;2.83;;
315;SDS011;14128;48.686;9.738;2022-11-20T06:33:43;4.90;;;3.10;;
315;SDS011;14128;48.686;9.738;2022-11-20T06:36:10;4.30;;;4.00;;
315;SDS011;14128;48.686;9.738;2022-11-20T06:38:39;4.43;;;3.00;;
315;SDS011;14128;48.686;9.738;2022-11-20T06:41:09;5.53;;;3.27;;
315;SDS011;14128;48.686;9.738;2022-11-20T06:43:38;10.47;;;3.20;;
315;SDS011;14128;48.686;9.738;2022-11-20T06:46:05;3.30;;;2.93;;
315;SDS011;14128;48.686;9.738;2022-11-20T06:48:32;3.47;;;3.20;;
315;SDS011;14128;48.686;9.738;2022-11-20T06:50:59;3.07;;;2.83;;
315;SDS011;14128;48.686;9.738;2022-11-20T06:53:28;4.50;;;3.63;;
315;SDS011;14128;48.686;9.738;2022-11-20T06:55:55;3.80;;;3.20;;
315;SDS011;14128;48.686;9.738;2022-11-20T06:58:26;4.00;;;3.80;;
315;SDS011;14128;48.686;9.738;2022-11-20T07:00:53;4.50;;;4.20;;
315;SDS011;14128;48.686;9.738;2022-11-20T07:03:23;3.33;;;2.57;;
315;SDS011;14128;48.686;9.738;2022-11-20T07:05:50;7.77;;;5.37;;
315;SDS011;14128;48.686;9.738;2022-11-20T07:08:17;6.50;;;3.47;;
315;SDS011;14128;48.686;9.738;2022-11-20T07:10:43;5.10;;;4.07;;
315;SDS011;14128;48.686;9.738;2022-11-20T07:13:10;4.57;;;2.80;;
315;SDS011;14128;48.686;9.738;2022-11-20T07:15:39;4.40;;;4.10;;
315;SDS011;14128;48.686;9.738;2022-11-20T07:18:05;7.50;;;4.87;;
315;SDS011;14128;48.686;9.738;2022-11-20T07:20:32;4.70;;;4.40;;
315;SDS011;14128;48.686;9.738;2022-11-20T07:22:59;6.63;;;4.30;;
315;SDS011;14128;48.686;9.738;2022-11-20T07:25:27;5.50;;;4.47;;
315;SDS011;14128;48.686;9.738;2022-11-20T07:27:56;4.33;;;2.87;;
315;SDS011;14128;48.686;9.738;2022-11-20T07:30:23;3.17;;;3.03;;
315;SDS011;14128;48.686;9.738;2022-11-20T07:32:51;2.87;;;2.60;;
315;SDS011;14128;48.686;9.738;2022-11-20T07:35:19;5.67;;;4.70;;
315;SDS011;14128;48.686;9.738;2022-11-20T07:37:46;8.70;;;5.70;;
315;SDS011;14128;48.686;9.738;2022-11-20T07:40:13;10.70;;;6.40;;
315;SDS011;14128;48.686;9.738;2022-11-20T07:42:46;6.43;;;4.30;;
315;SDS011;14128;48.686;9.738;2022-11-20T07:45:14;7.40;;;3.83;;
315;SDS011;14128;48.686;9.738;2022-11-20T07:47:41;6.10;;;3.87;;
315;SDS011;14128;48.686;9.738;2022-11-20T07:50:09;11.53;;;7.27;;
315;SDS011;14128;48.686;9.738;2022-11-20T07:52:36;4.60;;;3.80;;
315;SDS011;14128;48.686;9.738;2022-11-20T07:55:03;5.47;;;3.60;;
315;SDS011;14128;48.686;9.738;2022-11-20T07:57:31;4.50;;;2.77;;
315;SDS011;14128;48.686;9.738;2022-11-20T07:59:57;6.13;;;3.53;;
315;SDS011;14128;48.686;9.738;2022-11-20T08:02:24;3.83;;;3.00;;
315;SDS011;14128;48.686;9.738;2022-11-20T08:04:51;2.90;;;1.93;;
315;SDS011;14128;48.686;9.738;2022-11-20T08:07:19;2.53;;;1.97;;
315;SDS011;14128;48.686;9.738;2022-11-20T08:09:46;2.50;;;2.23;;
315;SDS011;14128;48.686;9.738;2022-11-20T08:12:16;1.57;;;1.40;;
315;SDS011;14128;48.686;9.738;2022-11-20T08:15:02;5.83;;;3.93;;
315;SDS011;14128;48.686;9.738;2022-11-20T08:17:29;3.70;;;3.60;;
315;SDS011;14128;48.686;9.738;2022-11-20T08:19:56;2.77;;;2.53;;
315;SDS011;14128;48.686;9.738;2022-11-20T08:22:24;7.60;;;3.77;;
315;SDS011;14128;48.686;9.738;2022-11-20T08:24:51;2.63;;;2.50;;
315;SDS011;14128;48.686;9.738;2022-11-20T08:27:18;3.53;;;2.50;;
315;SDS011;14128;48.686;9.738;2022-11-20T08:29:44;1.60;;;1.47;;
315;SDS011;14128;48.686;9.738;2022-11-20T08:32:11;3.03;;;1.60;;
315;SDS011;14128;48.686;9.738;2022-11-20T08:34:38;5.80;;;1.50;;
315;SDS011;14128;48.686;9.738;2022-11-20T08:37:05;2.03;;;1.17;;
315;SDS011;14128;48.686;9.738;2022-11-20T08:39:33;1.57;;;1.47;;
315;SDS011;14128;48.686;9.738;2022-11-20T08:42:00;3.07;;;2.00;;
315;SDS011;14128;48.686;9.738;2022-11-20T08:44:26;3.50;;;1.70;;
315;SDS011;14128;48.686;9.738;2022-11-20T08:46:53;3.20;;;1.90;;
315;SDS011;14128;48.686;9.738;2022-11-20T08:49:20;1.43;;;1.10;;
315;SDS011;14128;48.686;9.738;2022-11-20T08:51:47;1.33;;;1.27;;
315;SDS011;14128;48.686;9.738;2022-11-20T08:54:17;2.47;;;1.80;;
315;SDS011;14128;48.686;9.738;2022-11-20T08:56:46;1.70;;;1.20;;
315;SDS011;14128;48.686;9.738;2022-11-20T08:59:13;2.70;;;1.13;;
315;SDS011;14128;48.686;9.738;2022-11-20T09:01:39;2.30;;;1.20;;
315;SDS011;14128;48.686;9.738;2022-11-20T09:04:06;3.17;;;1.40;;
315;SDS011;14128;48.686;9.738;2022-11-20T09:06:33;1.00;;;0.90;;
315;SDS011;14128;48.686;9.738;2022-11-20T09:09:00;1.33;;;0.90;;
315;SDS011;14128;48.686;9.738;2022-11-20T09:11:26;1.50;;;0.90;;
315;SDS011;14128;48.686;9.738;2022-11-20T09:13:55;1.33;;;1.27;;
315;SDS011;14128;48.686;9.738;2022-11-20T09:16:21;1.20;;;1.10;;
315;SDS011;14128;48.686;9.738;2022-11-20T09:18:49;1.10;;;1.00;;
315;SDS011;14128;48.686;9.738;2022-11-20T09:21:16;2.17;;;1.40;;
315;SDS011;14128;48.686;9.738;2022-11-20T09:23:43;1.60;;;1.33;;
315;SDS011;14128;48.686;9.738;2022-11-20T09:26:11;1.80;;;1.17;;
315;SDS011;14128;48.686;9.738;2022-11-20T09:28:39;2.50;;;2.30;;
315;SDS011;14128;48.686;9.738;2022-11-20T09:31:09;1.30;;;1.30;;
315;SDS011;14128;48.686;9.738;2022-11-20T09:33:44;1.70;;;1.00;;
315;SDS011;14128;48.686;9.738;2022-11-20T09:36:11;1.97;;;1.87;;
315;SDS011;14128;48.686;9.738;2022-11-20T09:38:37;1.63;;;0.70;;
315;SDS011;14128;48.686;9.738;2022-11-20T09:41:05;3.17;;;1.30;;
315;SDS011;14128;48.686;9.738;2022-11-20T09:43:37;1.30;;;1.30;;
315;SDS011;14128;48.686;9.738;2022-11-20T09:46:16;2.63;;;2.37;;
315;SDS011;14128;48.686;9.738;2022-11-20T09:48:51;2.23;;;0.90;;
315;SDS011;14128;48.686;9.738;2022-11-20T09:51:37;1.43;;;1.40;;
315;SDS011;14128;48.686;9.738;2022-11-20T09:54:15;4.27;;;2.67;;
315;SDS011;14128;48.686;9.738;2022-11-20T09:56:44;5.13;;;2.87;;
315;SDS011;14128;48.686;9.738;2022-11-20T09:59:18;3.67;;;2.37;;
315;SDS011;14128;48.686;9.738;2022-11-20T10:02:01;6.30;;;2.83;;
315;SDS011;14128;48.686;9.738;2022-11-20T10:04:37;3.37;;;2.27;;
315;SDS011;14128;48.686;9.738;2022-11-20T10:07:11;1.80;;;1.57;;
315;SDS011;14128;48.686;9.738;2022-11-20T10:09:43;1.57;;;0.90;;
315;SDS011;14128;48.686;9.738;2022-11-20T10:12:17;1.67;;;1.57;;
315;SDS011;14128;48.686;9.738;2022-11-20T10:14:54;6.67;;;2.30;;
315;SDS011;14128;48.686;9.738;2022-11-20T10:17:36;2.90;;;2.47;;
315;SDS011;14128;48.686;9.738;2022-11-20T10:20:30;3.97;;;1.60;;
315;SDS011;14128;48.686;9.738;2022-11-20T10:23:09;2.33;;;1.63;;
315;SDS011;14128;48.686;9.738;2022-11-20T10:25:51;1.93;;;1.90;;
315;SDS011;14128;48.686;9.738;2022-11-20T10:28:33;3.03;;;1.67;;
315;SDS011;14128;48.686;9.738;2022-11-20T10:31:11;3.70;;;2.50;;
315;SDS011;14128;48.686;9.738;2022-11-20T10:33:42;6.03;;;1.80;;
315;SDS011;14128;48.686;9.738;2022-11-20T10:36:15;4.30;;;2.80;;
315;SDS011;14128;48.686;9.738;2022-11-20T10:38:47;3.40;;;2.30;;
315;SDS011;14128;48.686;9.738;2022-11-20T10:41:21;2.13;;;1.73;;
315;SDS011;14128;48.686;9.738;2022-11-20T10:43:56;3.73;;;2.20;;
315;SDS011;14128;48.686;9.738;2022-11-20T10:46:33;1.53;;;1.40;;
315;SDS011;14128;48.686;9.738;2022-11-20T10:49:09;2.80;;;2.63;;
315;SDS011;14128;48.686;9.738;2022-11-20T10:51:40;2.10;;;1.40;;
315;SDS011;14128;48.686;9.738;2022-11-20T10:54:20;2.50;;;1.97;;
315;SDS011;14128;48.686;9.738;2022-11-20T10:56:55;1.50;;;1.13;;
315;SDS011;14128;48.686;9.738;2022-11-20T10:59:31;1.67;;;1.50;;
315;SDS011;14128;48.686;9.738;2022-11-20T11:02:17;1.47;;;1.43;;
315;SDS011;14128;48.686;9.738;2022-11-20T11:04:47;1.10;;;1.00;;
315;SDS011;14128;48.686;9.738;2022-11-20T11:07:16;1.80;;;1.23;;
315;SDS011;14128;48.686;9.738;2022-11-20T11:09:48;0.90;;;0.70;;
315;SDS011;14128;48.686;9.738;2022-11-20T11:12:16;1.70;;;1.10;;
315;SDS011;14128;48.686;9.738;2022-11-20T11:14:44;1.53;;;1.10;;
315;SDS011;14128;48.686;9.738;2022-11-20T11:17:20;1.00;;;0.90;;
315;SDS011;14128;48.686;9.738;2022-11-20T11:20:00;4.83;;;1.57;;
315;SDS011;14128;48.686;9.738;2022-11-20T11:22:30;1.73;;;1.20;;
315;SDS011;14128;48.686;9.738;2022-11-20T11:24:58;1.50;;;1.40;;
315;SDS011;14128;48.686;9.738;2022-11-20T11:27:26;2.97;;;1.97;;
315;SDS011;14128;48.686;9.738;2022-11-20T11:30:01;2.20;;;1.73;;
315;SDS011;14128;48.686;9.738;2022-11-20T11:32:39;1.77;;;1.43;;
315;SDS011;14128;48.686;9.738;2022-11-20T11:35:17;1.80;;;1.70;;
315;SDS011;14128;48.686;9.738;2022-11-20T11:37:50;1.90;;;1.73;;
315;SDS011;14128;48.686;9.738;2022-11-20T11:40:20;2.70;;;1.40;;
315;SDS011;14128;48.686;9.738;2022-11-20T11:42:54;2.40;;;2.00;;
315;SDS011;14128;48.686;9.738;2022-11-20T11:45:24;2.70;;;1.90;;
315;SDS011;14128;48.686;9.738;2022-11-20T11:47:51;4.10;;;2.50;;
315;SDS011;14128;48.686;9.738;2022-11-20T11:50:22;2.03;;;1.93;;
315;SDS011;14128;48.686;9.738;2022-11-20T11:52:57;2.90;;;2.30;;
315;SDS011;14128;48.686;9.738;2022-11-20T11:55:30;3.77;;;3.57;;
315;SDS011;14128;48.686;9.738;2022-11-20T11:58:10;4.70;;;4.40;;
315;SDS011;14128;48.686;9.738;2022-11-20T12:00:45;4.60;;;3.83;;
315;SDS011;14128;48.686;9.738;2022-11-20T12:03:17;2.80;;;2.00;;
315;SDS011;14128;48.686;9.738;2022-11-20T12:05:49;4.53;;;4.10;;
315;SDS011;14128;48.686;9.738;2022-11-20T12:08:23;4.37;;;4.17;;
315;SDS011;14128;48.686;9.738;2022-11-20T12:10:56;3.77;;;2.73;;
315;SDS011;14128;48.686;9.738;2022-11-20T12:13:40;3.83;;;3.60;;
315;SDS011;14128;48.686;9.738;2022-11-20T12:16:14;12.37;;;8.27;;
315;SDS011;14128;48.686;9.738;2022-11-20T12:18:43;7.63;;;6.17;;
315;SDS011;14128;48.686;9.738;2022-11-20T12:21:16;7.63;;;6.03;;
315;SDS011;14128;48.686;9.738;2022-11-20T12:23:53;6.87;;;5.43;;
315;SDS011;14128;48.686;9.738;2022-11-20T12:26:31;6.90;;;6.03;;
315;SDS011;14128;48.686;9.738;2022-11-20T12:29:09;7.47;;;6.73;;
315;SDS011;14128;48.686;9.738;2022-11-20T12:31:58;10.47;;;7.17;;
315;SDS011;14128;48.686;9.738;2022-11-20T12:34:47;5.47;;;5.20;;
315;SDS011;14128;48.686;9.738;2022-11-20T12:37:30;4.97;;;4.17;;
315;SDS011;14128;48.686;9.738;2022-11-20T12:40:07;3.90;;;3.70;;
315;SDS011;14128;48.686;9.738;2022-11-20T12:42:49;3.27;;;3.10;;
315;SDS011;14128;48.686;9.738;2022-11-20T12:45:52;3.60;;;2.90;;
315;SDS011;14128;48.686;9.738;2022-11-20T12:48:37;3.23;;;2.53;;
315;SDS011;14128;48.686;9.738;2022-11-20T12:54:21;7.33;;;6.27;;
315;SDS011;14128;48.686;9.738;2022-11-20T12:57:12;8.87;;;4.53;;
315;SDS011;14128;48.686;9.738;2022-11-20T12:59:52;4.00;;;3.80;;
315;SDS011;14128;48.686;9.738;2022-11-20T13:02:34;3.70;;;3.50;;
315;SDS011;14128;48.686;9.738;2022-11-20T13:05:17;3.07;;;2.77;;
315;SDS011;14128;48.686;9.738;2022-11-20T13:07:47;9.60;;;6.70;;
315;SDS011;14128;48.686;9.738;2022-11-20T13:10:20;6.07;;;5.77;;
315;SDS011;14128;48.686;9.738;2022-11-20T13:12:54;4.00;;;3.80;;
315;SDS011;14128;48.686;9.738;2022-11-20T13:15:33;4.13;;;3.70;;
315;SDS011;14128;48.686;9.738;2022-11-20T13:18:10;4.00;;;3.80;;
315;SDS011;14128;48.686;9.738;2022-11-20T13:20:41;6.30;;;3.33;;
315;SDS011;14128;48.686;9.738;2022-11-20T13:23:09;5.37;;;4.97;;
315;SDS011;14128;48.686;9.738;2022-11-20T13:25:38;6.43;;;3.50;;
315;SDS011;14128;48.686;9.738;2022-11-20T13:30:53;3.13;;;2.70;;
315;SDS011;14128;48.686;9.738;2022-11-20T13:33:22;2.60;;;2.30;;
315;SDS011;14128;48.686;9.738;2022-11-20T13:35:55;2.70;;;2.50;;
315;SDS011;14128;48.686;9.738;2022-11-20T13:38:23;2.43;;;2.23;;
315;SDS011;14128;48.686;9.738;2022-11-20T13:40:52;3.10;;;1.70;;
315;SDS011;14128;48.686;9.738;2022-11-20T13:43:26;3.13;;;1.93;;
315;SDS011;14128;48.686;9.738;2022-11-20T13:46:01;2.40;;;1.77;;
315;SDS011;14128;48.686;9.738;2022-11-20T13:48:30;2.40;;;1.43;;
315;SDS011;14128;48.686;9.738;2022-11-20T13:51:04;3.27;;;2.10;;
315;SDS011;14128;48.686;9.738;2022-11-20T13:53:48;2.30;;;1.60;;
315;SDS011;14128;48.686;9.738;2022-11-20T13:56:35;1.53;;;1.43;;
315;SDS011;14128;48.686;9.738;2022-11-20T13:59:16;2.50;;;1.60;;
315;SDS011;14128;48.686;9.738;2022-11-20T14:02:05;2.47;;;1.77;;
315;SDS011;14128;48.686;9.738;2022-11-20T14:04:38;2.10;;;1.70;;
315;SDS011;14128;48.686;9.738;2022-11-20T14:07:10;2.77;;;1.50;;
315;SDS011;14128;48.686;9.738;2022-11-20T14:09:38;4.93;;;1.33;;
315;SDS011;14128;48.686;9.738;2022-11-20T14:12:14;3.03;;;1.40;;
315;SDS011;14128;48.686;9.738;2022-11-20T14:14:47;3.90;;;1.47;;
315;SDS011;14128;48.686;9.738;2022-11-20T14:17:17;2.27;;;2.10;;
315;SDS011;14128;48.686;9.738;2022-11-20T14:19:45;2.10;;;1.53;;
315;SDS011;14128;48.686;9.738;2022-11-20T14:22:17;1.63;;;1.53;;
315;SDS011;14128;48.686;9.738;2022-11-20T14:24:46;2.50;;;1.60;;
315;SDS011;14128;48.686;9.738;2022-11-20T14:27:15;3.90;;;2.07;;
315;SDS011;14128;48.686;9.738;2022-11-20T14:29:44;1.63;;;1.60;;
315;SDS011;14128;48.686;9.738;2022-11-20T14:32:14;1.83;;;1.73;;
315;SDS011;14128;48.686;9.738;2022-11-20T14:34:43;3.00;;;2.10;;
315;SDS011;14128;48.686;9.738;2022-11-20T14:37:12;4.23;;;2.17;;
315;SDS011;14128;48.686;9.738;2022-11-20T14:39:48;1.60;;;1.50;;
315;SDS011;14128;48.686;9.738;2022-11-20T14:42:17;2.83;;;2.10;;
315;SDS011;14128;48.686;9.738;2022-11-20T14:44:45;1.07;;;0.97;;
315;SDS011;14128;48.686;9.738;2022-11-20T14:47:15;1.70;;;1.60;;
315;SDS011;14128;48.686;9.738;2022-11-20T14:49:45;3.63;;;2.30;;
315;SDS011;14128;48.686;9.738;2022-11-20T14:52:13;1.47;;;1.20;;
315;SDS011;14128;48.686;9.738;2022-11-20T14:54:45;2.30;;;0.93;;
315;SDS011;14128;48.686;9.738;2022-11-20T14:57:22;2.10;;;1.50;;
315;SDS011;14128;48.686;9.738;2022-11-20T14:59:51;1.10;;;0.90;;
315;SDS011;14128;48.686;9.738;2022-11-20T15:02:29;3.17;;;1.67;;
315;SDS011;14128;48.686;9.738;2022-11-20T15:04:57;4.10;;;1.30;;
315;SDS011;14128;48.686;9.738;2022-11-20T15:07:27;3.83;;;1.47;;
315;SDS011;14128;48.686;9.738;2022-11-20T15:10:01;7.43;;;2.03;;
315;SDS011;14128;48.686;9.738;2022-11-20T15:12:31;1.50;;;1.37;;
315;SDS011;14128;48.686;9.738;2022-11-20T15:15:00;3.13;;;2.10;;
315;SDS011;14128;48.686;9.738;2022-11-20T15:17:27;2.30;;;2.10;;
315;SDS011;14128;48.686;9.738;2022-11-20T15:19:54;1.57;;;1.50;;
315;SDS011;14128;48.686;9.738;2022-11-20T15:22:21;3.63;;;2.60;;
315;SDS011;14128;48.686;9.738;2022-11-20T15:24:48;2.93;;;1.93;;
315;SDS011;14128;48.686;9.738;2022-11-20T15:27:15;4.17;;;1.70;;
315;SDS011;14128;48.686;9.738;2022-11-20T15:29:43;3.90;;;2.67;;
315;SDS011;14128;48.686;9.738;2022-11-20T15:32:10;4.60;;;2.30;;
315;SDS011;14128;48.686;9.738;2022-11-20T15:34:37;3.33;;;2.50;;
315;SDS011;14128;48.686;9.738;2022-11-20T15:37:03;3.97;;;2.27;;